Time;durP1;ratioP1;P1;durP2;ratioP2;P2;SDS_P1;SDS_P2;PMS_P1;PMS_P2;Temp;Humidity;BMP_temperature;BMP_pressure;BME280_temperature;BME280_humidity;BME280_pressure;Samples;Min_cycle;Max_cycle;Signal;HPM_P1;HPM_P2
2021/10/24 00:01:52;;;;;;;0.30;0.20;;;;;;;3.08;100.00;101481.09;5018954;28;20523;-48
2021/10/24 00:04:19;;;;;;;0.30;0.20;;;;;;;3.11;100.00;101477.66;5026539;28;20829;-48
2021/10/24 00:06:45;;;;;;;0.30;0.20;;;;;;;3.04;100.00;101473.13;5022244;28;20453;-50
2021/10/24 00:09:12;;;;;;;0.40;0.30;;;;;;;3.09;100.00;101477.63;5030160;28;20455;-48
2021/10/24 00:11:39;;;;;;;0.30;0.20;;;;;;;3.10;100.00;101470.63;5018834;28;20448;-49
2021/10/24 00:14:07;;;;;;;0.40;0.40;;;;;;;3.13;100.00;101475.94;5020877;28;20455;-49
2021/10/24 00:16:34;;;;;;;0.30;0.20;;;;;;;2.88;100.00;101466.69;5019936;28;20548;-47
2021/10/24 00:19:01;;;;;;;0.30;0.17;;;;;;;3.12;100.00;101472.41;5022674;28;20451;-48
2021/10/24 00:21:28;;;;;;;0.30;0.20;;;;;;;3.17;100.00;101462.03;5022783;28;20484;-48
2021/10/24 00:23:54;;;;;;;0.30;0.20;;;;;;;3.24;100.00;101474.41;5031929;28;20480;-48
2021/10/24 00:26:21;;;;;;;0.30;0.20;;;;;;;3.19;100.00;101466.47;5022484;28;20480;-48
2021/10/24 00:28:48;;;;;;;0.30;0.20;;;;;;;3.29;100.00;101475.41;5024822;28;20518;-48
2021/10/24 00:31:15;;;;;;;0.30;0.20;;;;;;;3.21;100.00;101469.13;5022496;28;21016;-49
2021/10/24 00:33:41;;;;;;;0.30;0.20;;;;;;;3.20;100.00;101465.59;5019968;28;20506;-48
2021/10/24 00:36:19;;;;;;;0.30;0.20;;;;;;;3.27;100.00;101470.09;5027439;28;20521;-49
2021/10/24 00:38:45;;;;;;;0.30;0.20;;;;;;;3.45;100.00;101466.09;5031841;28;20879;-48
2021/10/24 00:41:12;;;;;;;0.50;0.50;;;;;;;3.48;100.00;101464.41;5020907;28;20457;-50
2021/10/24 00:43:39;;;;;;;0.30;0.30;;;;;;;3.46;100.00;101459.97;5021971;28;20531;-48
2021/10/24 00:46:05;;;;;;;0.30;0.10;;;;;;;3.52;100.00;101458.34;5027399;28;20511;-49
2021/10/24 00:48:52;;;;;;;0.30;0.20;;;;;;;3.51;100.00;101460.94;5016197;28;20445;-50
2021/10/24 00:51:19;;;;;;;4.73;4.33;;;;;;;3.64;100.00;101465.56;5022484;28;20501;-48
2021/10/24 00:53:46;;;;;;;0.30;0.20;;;;;;;3.52;100.00;101462.72;5018708;28;20491;-49
2021/10/24 00:56:13;;;;;;;0.30;0.10;;;;;;;3.55;100.00;101460.13;5026750;28;20519;-49
2021/10/24 00:58:41;;;;;;;3.20;2.10;;;;;;;3.56;100.00;101456.63;5021033;28;20453;-48
2021/10/24 01:01:08;;;;;;;0.40;0.40;;;;;;;3.57;100.00;101463.69;5031010;28;21034;-49
2021/10/24 01:03:36;;;;;;;1.00;0.93;;;;;;;3.50;100.00;101446.91;5026216;28;20484;-48
2021/10/24 01:06:04;;;;;;;0.30;0.17;;;;;;;3.58;100.00;101454.97;5019143;28;20525;-49
2021/10/24 01:08:32;;;;;;;0.30;0.17;;;;;;;3.33;100.00;101443.09;5021032;28;20893;-48
2021/10/24 01:10:58;;;;;;;0.30;0.20;;;;;;;3.35;100.00;101454.50;5022315;28;20526;-48
2021/10/24 01:13:25;;;;;;;3.80;1.80;;;;;;;3.54;100.00;101445.22;5015789;28;20449;-50
2021/10/24 01:16:17;;;;;;;0.20;0.10;;;;;;;3.33;100.00;101444.81;5025172;28;21121;-49
2021/10/24 01:18:45;;;;;;;0.30;0.20;;;;;;;3.39;100.00;101437.06;5005598;28;20455;-48
2021/10/24 01:21:12;;;;;;;0.30;0.20;;;;;;;3.41;100.00;101444.09;5016769;28;21011;-49
2021/10/24 01:23:39;;;;;;;0.63;0.57;;;;;;;3.57;100.00;101442.69;5016009;28;20538;-48
2021/10/24 01:26:06;;;;;;;0.30;0.10;;;;;;;3.58;100.00;101441.81;5015197;28;20909;-50
2021/10/24 01:28:33;;;;;;;25.87;1.47;;;;;;;3.52;100.00;101444.31;5018563;28;20485;-51
2021/10/24 01:31:01;;;;;;;0.30;0.20;;;;;;;3.50;100.00;101440.78;5016324;28;20453;-51
2021/10/24 01:33:28;;;;;;;0.30;0.10;;;;;;;3.42;100.00;101430.09;5023137;28;20482;-50
2021/10/24 01:36:02;;;;;;;0.30;0.20;;;;;;;3.25;100.00;101435.03;5007543;28;20530;-50
2021/10/24 01:38:29;;;;;;;0.30;0.20;;;;;;;3.49;100.00;101433.75;5025010;28;20490;-51
2021/10/24 01:40:57;;;;;;;0.30;0.20;;;;;;;3.48;100.00;101434.59;5031482;28;20456;-51
2021/10/24 01:43:25;;;;;;;0.83;0.73;;;;;;;3.37;100.00;101426.50;5016686;28;20488;-50
2021/10/24 01:45:52;;;;;;;0.30;0.20;;;;;;;3.27;100.00;101420.19;5025316;28;21058;-51
2021/10/24 01:48:19;;;;;;;0.30;0.17;;;;;;;3.33;100.00;101429.94;5026932;28;20452;-50
2021/10/24 01:50:47;;;;;;;0.30;0.20;;;;;;;3.15;100.00;101421.69;5014007;28;21016;-51
2021/10/24 01:53:29;;;;;;;0.30;0.20;;;;;;;3.08;100.00;101423.31;5022374;28;20451;-51
2021/10/24 01:55:56;;;;;;;0.30;0.20;;;;;;;3.05;100.00;101415.38;5015899;28;20476;-50
2021/10/24 01:58:23;;;;;;;0.30;0.10;;;;;;;3.16;100.00;101419.13;5026131;28;20489;-50
2021/10/24 02:00:50;;;;;;;1.17;1.17;;;;;;;3.07;100.00;101411.03;5017747;28;20455;-50
2021/10/24 02:03:18;;;;;;;0.30;0.20;;;;;;;2.97;100.00;101411.72;5017853;28;20484;-50
2021/10/24 02:05:46;;;;;;;0.27;0.10;;;;;;;2.71;100.00;101410.28;5026322;28;20826;-50
2021/10/24 02:08:14;;;;;;;0.30;0.20;;;;;;;2.94;100.00;101409.91;5022485;28;20509;-50
2021/10/24 02:10:41;;;;;;;1.23;0.37;;;;;;;3.23;100.00;101401.72;5029813;28;20474;-51
2021/10/24 02:13:08;;;;;;;0.30;0.20;;;;;;;3.02;100.00;101399.56;5018377;28;20830;-50
2021/10/24 02:15:35;;;;;;;0.30;0.20;;;;;;;2.79;100.00;101392.97;5021535;28;20475;-51
2021/10/24 02:18:07;;;;;;;0.30;0.23;;;;;;;2.86;100.00;101394.84;5002351;28;20468;-50
2021/10/24 02:20:35;;;;;;;0.27;0.13;;;;;;;2.79;100.00;101393.84;5019922;28;21011;-50
2021/10/24 02:23:04;;;;;;;2.37;2.17;;;;;;;2.85;100.00;101395.69;5015166;28;20503;-51
2021/10/24 02:25:31;;;;;;;0.30;0.20;;;;;;;2.87;100.00;101394.88;5005322;28;20475;-50
2021/10/24 02:27:57;;;;;;;1.37;0.77;;;;;;;2.73;100.00;101392.81;5025200;28;21034;-50
2021/10/24 02:30:24;;;;;;;0.30;0.20;;;;;;;2.92;100.00;101387.09;5023698;28;20876;-51
2021/10/24 02:32:51;;;;;;;0.30;0.20;;;;;;;2.92;100.00;101388.00;5022481;28;20507;-50
2021/10/24 02:35:20;;;;;;;1.40;1.40;;;;;;;3.07;100.00;101391.78;5030472;28;20460;-51
2021/10/24 02:37:47;;;;;;;0.20;0.10;;;;;;;3.11;100.00;101388.34;5022281;28;21008;-51
2021/10/24 02:40:14;;;;;;;0.30;0.20;;;;;;;3.11;100.00;101396.22;5013610;28;20938;-50
2021/10/24 02:42:41;;;;;;;0.20;0.10;;;;;;;3.17;100.00;101394.63;5024958;28;20456;-50
2021/10/24 02:45:08;;;;;;;0.30;0.20;;;;;;;3.04;100.00;101391.72;5028065;28;20552;-50
2021/10/24 02:47:35;;;;;;;0.30;0.20;;;;;;;3.15;100.00;101383.19;5030698;28;20456;-50
2021/10/24 02:50:03;;;;;;;0.37;0.33;;;;;;;3.24;100.00;101379.84;5024221;28;21022;-50
2021/10/24 02:52:29;;;;;;;0.30;0.20;;;;;;;3.23;100.00;101383.34;5018088;28;20448;-50
2021/10/24 02:54:56;;;;;;;0.30;0.20;;;;;;;3.25;100.00;101378.97;5023470;28;20503;-50
2021/10/24 02:57:22;;;;;;;0.30;0.20;;;;;;;3.25;100.00;101379.88;5021325;28;20505;-50
2021/10/24 02:59:49;;;;;;;0.30;0.20;;;;;;;3.30;100.00;101376.47;5028060;28;20456;-50
2021/10/24 03:02:16;;;;;;;0.30;0.10;;;;;;;3.25;100.00;101373.72;5021368;28;20452;-50
2021/10/24 03:04:42;;;;;;;0.20;0.10;;;;;;;3.21;100.00;101375.44;5029593;28;20524;-50
2021/10/24 03:07:09;;;;;;;0.30;0.10;;;;;;;3.10;100.00;101374.31;5022743;28;20453;-51
2021/10/24 03:09:36;;;;;;;0.30;0.20;;;;;;;3.14;100.00;101370.91;5019597;28;20941;-50
2021/10/24 03:12:02;;;;;;;0.30;0.20;;;;;;;3.14;100.00;101373.53;5017746;28;20515;-50
2021/10/24 03:14:29;;;;;;;0.30;0.20;;;;;;;3.20;100.00;101371.03;5029016;28;20491;-50
2021/10/24 03:16:56;;;;;;;0.30;0.17;;;;;;;3.09;100.00;101367.31;5027472;28;20968;-50
2021/10/24 03:19:24;;;;;;;0.20;0.10;;;;;;;3.05;100.00;101361.97;5029649;28;20487;-50
2021/10/24 03:21:50;;;;;;;0.30;0.20;;;;;;;3.03;100.00;101372.47;5018681;28;20522;-50
2021/10/24 03:24:19;;;;;;;0.30;0.20;;;;;;;2.97;100.00;101364.44;5032839;28;20487;-51
2021/10/24 03:26:45;;;;;;;0.30;0.20;;;;;;;2.88;100.00;101374.78;5033725;28;20885;-50
2021/10/24 03:29:12;;;;;;;0.30;0.10;;;;;;;2.55;100.00;101373.22;5025022;28;20456;-51
2021/10/24 03:31:39;;;;;;;0.20;0.20;;;;;;;2.66;100.00;101369.06;5021776;28;20455;-50
2021/10/24 03:34:05;;;;;;;0.30;0.20;;;;;;;2.60;100.00;101368.97;5026482;28;20453;-50
2021/10/24 03:36:32;;;;;;;0.30;0.10;;;;;;;2.60;100.00;101373.28;5010185;28;20452;-50
2021/10/24 03:38:59;;;;;;;0.30;0.20;;;;;;;2.64;100.00;101368.16;5018542;28;20453;-50
2021/10/24 03:41:25;;;;;;;0.30;0.20;;;;;;;2.35;100.00;101362.28;5029407;28;20455;-50
2021/10/24 03:43:52;;;;;;;0.30;0.20;;;;;;;2.19;100.00;101377.63;5021454;28;20985;-50
2021/10/24 03:46:18;;;;;;;0.30;0.20;;;;;;;2.03;100.00;101371.16;5018233;28;20545;-50
2021/10/24 03:48:45;;;;;;;0.30;0.10;;;;;;;2.16;100.00;101375.84;5022999;28;20460;-50
2021/10/24 03:51:12;;;;;;;0.30;0.20;;;;;;;2.30;100.00;101366.53;5023276;28;20456;-50
2021/10/24 03:53:38;;;;;;;0.30;0.20;;;;;;;2.23;100.00;101372.50;5024480;28;20444;-50
2021/10/24 03:56:05;;;;;;;0.20;0.10;;;;;;;2.36;100.00;101371.94;5026913;28;20506;-50
2021/10/24 03:58:31;;;;;;;0.30;0.20;;;;;;;2.25;100.00;101373.44;5020068;28;20938;-51
2021/10/24 04:00:58;;;;;;;0.87;0.87;;;;;;;2.29;100.00;101364.75;5022704;28;20499;-50
2021/10/24 04:03:25;;;;;;;0.30;0.20;;;;;;;2.18;100.00;101374.13;5017556;28;20960;-50
2021/10/24 04:05:51;;;;;;;0.20;0.20;;;;;;;2.10;100.00;101369.56;5023832;28;20530;-50
2021/10/24 04:08:18;;;;;;;0.30;0.30;;;;;;;2.14;100.00;101371.41;5022457;28;20946;-50
2021/10/24 04:10:45;;;;;;;0.30;0.20;;;;;;;2.36;100.00;101366.69;5029794;28;20456;-50
2021/10/24 04:13:11;;;;;;;0.30;0.10;;;;;;;1.99;100.00;101372.81;5022167;28;20539;-50
2021/10/24 04:15:38;;;;;;;0.20;0.17;;;;;;;2.01;100.00;101375.47;5023895;28;20960;-50
2021/10/24 04:18:05;;;;;;;0.20;0.10;;;;;;;2.02;100.00;101372.88;5015611;28;20557;-50
2021/10/24 04:20:32;;;;;;;0.30;0.20;;;;;;;2.09;100.00;101373.94;5020506;28;20941;-50
2021/10/24 04:22:59;;;;;;;0.20;0.17;;;;;;;2.03;100.00;101368.53;5016517;28;20457;-50
2021/10/24 04:25:25;;;;;;;0.73;0.73;;;;;;;2.07;100.00;101368.66;5023485;28;20534;-50
2021/10/24 04:27:53;;;;;;;0.20;0.10;;;;;;;2.12;100.00;101362.63;5024715;28;20456;-50
2021/10/24 04:30:20;;;;;;;0.20;0.20;;;;;;;2.18;100.00;101370.63;5022698;28;20453;-50
2021/10/24 04:32:48;;;;;;;0.20;0.10;;;;;;;2.10;100.00;101369.56;5022099;28;20460;-50
2021/10/24 04:35:15;;;;;;;0.20;0.20;;;;;;;1.87;100.00;101372.53;5029939;28;20468;-50
2021/10/24 04:37:42;;;;;;;0.30;0.20;;;;;;;1.77;100.00;101362.66;5020513;28;20447;-50
2021/10/24 04:40:10;;;;;;;0.30;0.13;;;;;;;1.91;100.00;101363.00;5017315;28;20463;-50
2021/10/24 04:42:37;;;;;;;0.33;0.30;;;;;;;1.88;100.00;101362.94;5013807;28;20448;-50
2021/10/24 04:45:05;;;;;;;0.30;0.20;;;;;;;1.96;100.00;101366.63;5023211;28;20484;-50
2021/10/24 04:47:32;;;;;;;0.20;0.10;;;;;;;1.92;100.00;101360.44;5010072;28;20460;-50
2021/10/24 04:49:59;;;;;;;0.20;0.10;;;;;;;1.94;100.00;101353.50;5017329;28;20460;-50
2021/10/24 04:52:25;;;;;;;0.20;0.20;;;;;;;2.07;100.00;101357.28;5015518;28;20957;-50
2021/10/24 04:54:52;;;;;;;0.23;0.20;;;;;;;2.13;100.00;101356.53;5020579;28;20472;-50
2021/10/24 04:57:19;;;;;;;0.60;0.60;;;;;;;2.12;100.00;101360.88;5025558;28;20456;-50
2021/10/24 04:59:45;;;;;;;0.20;0.20;;;;;;;2.06;100.00;101364.25;5033157;28;20483;-50
2021/10/24 05:02:12;;;;;;;0.20;0.10;;;;;;;2.07;100.00;101355.56;5025118;28;20502;-50
2021/10/24 05:04:39;;;;;;;0.30;0.20;;;;;;;1.80;100.00;101356.63;5020470;28;21032;-50
2021/10/24 05:07:05;;;;;;;0.30;0.20;;;;;;;1.83;100.00;101351.47;5016823;28;20449;-50
2021/10/24 05:09:32;;;;;;;0.30;0.20;;;;;;;1.61;100.00;101355.28;5015851;28;20483;-50
2021/10/24 05:11:59;;;;;;;0.20;0.10;;;;;;;1.91;100.00;101344.66;5020654;28;20461;-50
2021/10/24 05:14:26;;;;;;;1.57;1.57;;;;;;;2.18;100.00;101350.53;5026829;28;20475;-50
2021/10/24 05:16:52;;;;;;;0.20;0.10;;;;;;;1.93;100.00;101345.59;5023870;28;20507;-50
2021/10/24 05:19:19;;;;;;;0.30;0.20;;;;;;;1.73;100.00;101343.38;5028109;28;20956;-50
2021/10/24 05:21:46;;;;;;;0.20;0.10;;;;;;;1.61;100.00;101340.44;5021958;28;20944;-50
2021/10/24 05:24:12;;;;;;;0.30;0.30;;;;;;;1.76;100.00;101339.91;5021128;28;20488;-50
2021/10/24 05:26:39;;;;;;;0.67;0.67;;;;;;;1.69;100.00;101335.41;5028199;28;20862;-50
2021/10/24 05:29:05;;;;;;;0.30;0.10;;;;;;;1.89;100.00;101331.50;5020003;28;20977;-50
2021/10/24 05:31:32;;;;;;;0.60;0.33;;;;;;;1.81;100.00;101332.19;5016300;28;20870;-50
2021/10/24 05:33:59;;;;;;;0.20;0.13;;;;;;;2.01;100.00;101333.53;5015015;28;20457;-51
2021/10/24 05:36:26;;;;;;;0.20;0.20;;;;;;;1.92;100.00;101342.09;5017838;28;20864;-50
2021/10/24 05:38:52;;;;;;;0.60;0.60;;;;;;;2.00;100.00;101351.00;5015933;28;20453;-50
2021/10/24 05:41:19;;;;;;;0.20;0.10;;;;;;;1.98;100.00;101341.34;5023435;28;20457;-50
2021/10/24 05:43:46;;;;;;;0.60;0.60;;;;;;;2.05;100.00;101340.59;5019930;28;20503;-50
2021/10/24 05:46:13;;;;;;;0.20;0.10;;;;;;;1.95;100.00;101334.28;5019483;28;20519;-50
2021/10/24 05:48:39;;;;;;;0.30;0.20;;;;;;;1.81;100.00;101338.31;5015968;28;20456;-50
2021/10/24 05:51:09;;;;;;;0.20;0.13;;;;;;;2.02;100.00;101336.19;5020404;28;20459;-50
2021/10/24 05:53:36;;;;;;;0.20;0.10;;;;;;;2.11;100.00;101338.13;4994021;28;20476;-50
2021/10/24 05:56:04;;;;;;;0.20;0.20;;;;;;;2.09;100.00;101331.97;5016521;28;20527;-50
2021/10/24 05:58:30;;;;;;;0.20;0.10;;;;;;;1.88;100.00;101337.59;5020901;28;20451;-50
2021/10/24 06:00:57;;;;;;;0.20;0.20;;;;;;;2.02;100.00;101336.19;5018248;28;20455;-50
2021/10/24 06:03:24;;;;;;;0.20;0.10;;;;;;;2.11;100.00;101337.25;5015179;28;20453;-51
2021/10/24 06:05:51;;;;;;;0.20;0.10;;;;;;;2.06;100.00;101338.03;5020100;28;20495;-50
2021/10/24 06:08:27;;;;;;;0.30;0.10;;;;;;;1.88;100.00;101345.47;5014316;28;21020;-50
2021/10/24 06:10:56;;;;;;;0.20;0.10;;;;;;;2.05;100.00;101338.88;5023274;28;20455;-50
2021/10/24 06:13:23;;;;;;;0.30;0.30;;;;;;;1.82;100.00;101337.47;5017385;28;20449;-50
2021/10/24 06:15:51;;;;;;;0.20;0.20;;;;;;;1.91;100.00;101339.41;5024975;28;20530;-50
2021/10/24 06:18:18;;;;;;;0.30;0.30;;;;;;;2.09;100.00;101345.09;5017859;28;20480;-51
2021/10/24 06:20:44;;;;;;;0.20;0.20;;;;;;;2.01;100.00;101350.16;5016471;28;20503;-50
2021/10/24 06:23:11;;;;;;;0.20;0.10;;;;;;;1.97;100.00;101348.31;5019325;28;20452;-50
2021/10/24 06:25:37;;;;;;;0.20;0.20;;;;;;;1.86;100.00;101349.78;5023245;28;20838;-50
2021/10/24 06:28:04;;;;;;;0.20;0.10;;;;;;;2.15;100.00;101345.22;5026803;28;20452;-50
2021/10/24 06:30:31;;;;;;;0.20;0.20;;;;;;;1.98;100.00;101354.44;5028307;28;20486;-50
2021/10/24 06:32:57;;;;;;;0.20;0.10;;;;;;;2.08;100.00;101349.44;5017406;28;20575;-50
2021/10/24 06:35:24;;;;;;;0.27;0.17;;;;;;;2.01;100.00;101350.16;5025933;28;20530;-50
2021/10/24 06:37:51;;;;;;;0.30;0.10;;;;;;;1.96;100.00;101351.78;5017770;28;20487;-50
2021/10/24 06:40:18;;;;;;;0.50;0.50;;;;;;;1.91;100.00;101352.50;5021383;28;20449;-50
2021/10/24 06:42:45;;;;;;;2.20;0.90;;;;;;;2.05;100.00;101354.59;5019735;28;21023;-50
2021/10/24 06:45:12;;;;;;;0.20;0.10;;;;;;;2.01;100.00;101347.53;5018254;28;20496;-50
2021/10/24 06:47:39;;;;;;;0.20;0.10;;;;;;;1.99;100.00;101348.34;5022380;28;20503;-50
2021/10/24 06:50:09;;;;;;;0.20;0.20;;;;;;;2.08;100.00;101352.06;5020094;28;20483;-50
2021/10/24 06:52:36;;;;;;;0.40;0.40;;;;;;;2.20;100.00;101353.22;5025502;28;20514;-50
2021/10/24 06:55:03;;;;;;;0.20;0.20;;;;;;;2.23;100.00;101361.13;5021357;28;20468;-50
2021/10/24 06:57:30;;;;;;;0.20;0.17;;;;;;;2.21;100.00;101354.97;5018917;28;20522;-50
2021/10/24 06:59:57;;;;;;;0.20;0.20;;;;;;;2.15;100.00;101363.56;5029401;28;20781;-50
2021/10/24 07:02:23;;;;;;;0.27;0.20;;;;;;;2.39;100.00;101350.13;5024285;28;20497;-50
2021/10/24 07:04:50;;;;;;;0.20;0.10;;;;;;;2.34;100.00;101349.16;5023338;28;20547;-50
2021/10/24 07:07:23;;;;;;;0.20;0.10;;;;;;;2.46;100.00;101357.25;5023429;28;20455;-50
2021/10/24 07:09:50;;;;;;;0.20;0.10;;;;;;;2.50;100.00;101351.25;5010316;28;20456;-50
2021/10/24 07:12:17;;;;;;;0.20;0.20;;;;;;;2.64;100.00;101360.28;5016942;28;20459;-50
2021/10/24 07:14:44;;;;;;;0.20;0.20;;;;;;;2.59;100.00;101356.66;5029282;28;20526;-50
2021/10/24 07:17:10;;;;;;;0.20;0.10;;;;;;;2.69;100.00;101357.75;5021400;28;20465;-51
2021/10/24 07:19:37;;;;;;;0.20;0.10;;;;;;;2.48;100.00;101359.94;5023973;28;20477;-50
2021/10/24 07:22:04;;;;;;;0.20;0.10;;;;;;;2.58;100.00;101359.25;5018290;28;20823;-51
2021/10/24 07:24:30;;;;;;;0.20;0.20;;;;;;;2.68;100.00;101361.22;5019012;28;21019;-50
2021/10/24 07:26:57;;;;;;;0.20;0.20;;;;;;;2.70;100.00;101356.00;5048710;23;20564;-48
2021/10/24 07:29:23;;;;;;;0.30;0.30;;;;;;;2.72;100.00;101357.81;5033939;28;20464;-49
2021/10/24 07:31:50;;;;;;;0.30;0.20;;;;;;;2.85;100.00;101358.94;5037930;28;20985;-49
2021/10/24 07:34:17;;;;;;;0.20;0.20;;;;;;;3.05;100.00;101359.34;5025727;28;20456;-48
2021/10/24 07:36:44;;;;;;;0.20;0.20;;;;;;;3.09;100.00;101364.69;5042179;28;20467;-49
2021/10/24 07:39:10;;;;;;;0.20;0.20;;;;;;;3.20;100.00;101367.53;5033368;28;20872;-49
2021/10/24 07:41:37;;;;;;;0.30;0.20;;;;;;;3.12;100.00;101364.72;5038515;28;20505;-49
2021/10/24 07:44:06;;;;;;;0.20;0.20;;;;;;;3.09;100.00;101367.31;5035172;28;20513;-49
2021/10/24 07:46:34;;;;;;;0.20;0.10;;;;;;;3.19;100.00;101366.63;5036208;28;20491;-49
2021/10/24 07:49:02;;;;;;;0.20;0.10;;;;;;;3.08;100.00;101370.78;5038512;28;20464;-49
2021/10/24 07:51:28;;;;;;;0.30;0.20;;;;;;;3.11;100.00;101365.59;5030919;28;20452;-49
2021/10/24 07:53:55;;;;;;;1.23;1.07;;;;;;;3.30;100.00;101368.59;5039604;28;20456;-49
2021/10/24 07:56:22;;;;;;;0.30;0.27;;;;;;;3.49;100.00;101363.66;5040045;28;20466;-49
2021/10/24 07:58:49;;;;;;;0.20;0.10;;;;;;;3.42;100.00;101368.78;5033235;28;20960;-51
2021/10/24 08:01:18;;;;;;;0.20;0.17;;;;;;;3.41;100.00;101364.38;5036034;28;20503;-51
2021/10/24 08:03:46;;;;;;;0.20;0.20;;;;;;;3.35;100.00;101366.91;5023418;28;20453;-51
2021/10/24 08:06:13;;;;;;;0.30;0.17;;;;;;;3.45;100.00;101367.13;5040643;28;20491;-51
2021/10/24 08:08:39;;;;;;;0.30;0.10;;;;;;;3.33;100.00;101364.25;5038417;28;20510;-53
2021/10/24 08:11:06;;;;;;;0.20;0.10;;;;;;;3.30;100.00;101358.97;5036065;28;20538;-52
2021/10/24 08:13:33;;;;;;;0.30;0.10;;;;;;;3.42;100.00;101359.16;5041231;28;20496;-52
2021/10/24 08:16:00;;;;;;;0.30;0.20;;;;;;;3.45;100.00;101359.22;5030890;28;20470;-49
2021/10/24 08:18:27;;;;;;;0.50;0.50;;;;;;;3.70;100.00;101350.03;5034939;28;20448;-49
2021/10/24 08:20:54;;;;;;;0.20;0.17;;;;;;;3.56;100.00;101344.53;5041774;28;20478;-51
2021/10/24 08:23:20;;;;;;;0.20;0.20;;;;;;;3.33;100.00;101350.25;5030106;28;20472;-51
2021/10/24 08:25:49;;;;;;;0.30;0.30;;;;;;;3.57;100.00;101348.03;5029953;28;20498;-50
2021/10/24 08:28:15;;;;;;;0.20;0.20;;;;;;;3.42;100.00;101343.38;5030742;28;20521;-51
2021/10/24 08:30:42;;;;;;;0.30;0.17;;;;;;;3.56;100.00;101346.25;5030753;28;20484;-50
2021/10/24 08:33:11;;;;;;;0.30;0.20;;;;;;;3.70;100.00;101341.22;5036924;28;20505;-50
2021/10/24 08:35:38;;;;;;;0.30;0.20;;;;;;;3.88;100.00;101348.53;5033717;28;20490;-50
2021/10/24 08:38:05;;;;;;;0.30;0.10;;;;;;;3.71;100.00;101338.63;5022411;28;20479;-50
2021/10/24 08:40:31;;;;;;;0.23;0.10;;;;;;;3.83;100.00;101346.69;5037159;28;20483;-50
2021/10/24 08:43:03;;;;;;;0.20;0.10;;;;;;;4.05;100.00;101337.41;5021940;28;20888;-50
2021/10/24 08:45:30;;;;;;;0.30;0.13;;;;;;;3.98;100.00;101337.31;5036530;28;20488;-51
2021/10/24 08:47:57;;;;;;;0.30;0.20;;;;;;;4.04;100.00;101337.38;5036309;28;20456;-50
2021/10/24 08:50:23;;;;;;;0.20;0.20;;;;;;;4.19;100.00;101345.50;5030084;28;20968;-50
2021/10/24 08:52:55;;;;;;;0.30;0.17;;;;;;;4.10;100.00;101330.44;5039978;28;20455;-50
2021/10/24 08:55:21;;;;;;;0.30;0.20;;;;;;;4.23;100.00;101336.78;5035601;28;20893;-50
2021/10/24 08:57:49;;;;;;;0.47;0.47;;;;;;;4.16;100.00;101337.56;5032309;28;20526;-50
2021/10/24 09:00:37;;;;;;;0.30;0.17;;;;;;;4.28;100.00;101335.09;5034516;28;20829;-50
2021/10/24 09:03:09;;;;;;;0.83;0.83;;;;;;;4.35;100.00;101331.69;5046195;28;20455;-52
2021/10/24 09:05:41;;;;;;;0.30;0.20;;;;;;;4.60;100.00;101335.53;5036519;28;20491;-49
2021/10/24 09:08:19;;;;;;;0.40;0.40;;;;;;;4.64;100.00;101329.41;5035169;28;20456;-50
2021/10/24 09:10:48;;;;;;;1.37;1.37;;;;;;;4.59;100.00;101324.97;5034650;28;20513;-51
2021/10/24 09:13:17;;;;;;;0.30;0.20;;;;;;;4.73;100.00;101324.28;5032100;28;20462;-50
2021/10/24 09:15:46;;;;;;;0.63;0.63;;;;;;;4.83;100.00;101319.13;5036313;28;20467;-50
2021/10/24 09:18:14;;;;;;;0.30;0.20;;;;;;;4.67;100.00;101329.47;5029322;28;20965;-50
2021/10/24 09:20:56;;;;;;;0.30;0.20;;;;;;;4.86;100.00;101319.16;5025562;28;20539;-50
2021/10/24 09:23:23;;;;;;;0.30;0.20;;;;;;;5.06;100.00;101318.47;5033832;28;20451;-50
2021/10/24 09:25:55;;;;;;;0.30;0.20;;;;;;;5.15;100.00;101306.28;5031523;28;20557;-51
2021/10/24 09:28:24;;;;;;;0.30;0.20;;;;;;;5.00;100.00;101307.00;5031875;28;20461;-51
2021/10/24 09:31:00;;;;;;;0.30;0.20;;;;;;;5.16;100.00;101308.03;5027226;28;20453;-50
2021/10/24 09:33:47;;;;;;;0.30;0.20;;;;;;;5.51;100.00;101304.00;5031244;28;20454;-50
2021/10/24 09:36:24;;;;;;;0.30;0.20;;;;;;;5.65;100.00;101298.84;5029695;28;20464;-50
2021/10/24 09:38:51;;;;;;;0.30;0.10;;;;;;;5.55;100.00;101296.97;5033763;28;20490;-48
2021/10/24 09:41:30;;;;;;;0.30;0.20;;;;;;;5.68;100.00;101298.84;5026248;28;20452;-49
2021/10/24 09:44:14;;;;;;;0.30;0.20;;;;;;;5.59;100.00;101299.66;5020201;28;20546;-48
2021/10/24 09:46:57;;;;;;;0.47;0.43;;;;;;;5.66;100.00;101303.22;5038334;28;20645;-49
2021/10/24 09:49:25;;;;;;;0.40;0.30;;;;;;;5.53;100.00;101296.09;5037634;28;20450;-48
2021/10/24 09:51:53;;;;;;;0.30;0.20;;;;;;;5.55;100.00;101286.44;5030064;28;20448;-50
2021/10/24 09:54:25;;;;;;;0.30;0.10;;;;;;;5.62;100.00;101286.50;5044834;28;20443;-48
2021/10/24 09:56:53;;;;;;;0.87;0.87;;;;;;;5.71;100.00;101282.16;5019760;28;21044;-50
2021/10/24 09:59:22;;;;;;;0.30;0.20;;;;;;;5.51;100.00;101292.56;5036198;28;20456;-49
2021/10/24 10:01:52;;;;;;;0.30;0.20;;;;;;;5.87;100.00;101282.25;5043162;28;20490;-50
2021/10/24 10:04:23;;;;;;;0.30;0.10;;;;;;;6.01;100.00;101279.75;5032961;28;20455;-49
2021/10/24 10:06:50;;;;;;;0.60;0.60;;;;;;;6.01;100.00;101277.09;5034351;28;20491;-50
2021/10/24 10:09:17;;;;;;;0.30;0.20;;;;;;;6.06;100.00;101271.88;5045411;28;20458;-49
2021/10/24 10:11:53;;;;;;;0.30;0.20;;;;;;;5.99;100.00;101257.75;5040869;28;20996;-49
2021/10/24 10:14:24;;;;;;;2.10;0.50;;;;;;;6.01;100.00;101265.66;5029823;28;20497;-49
2021/10/24 10:16:59;;;;;;;1.60;0.60;;;;;;;6.28;100.00;101255.25;5029658;28;20472;-50
2021/10/24 10:19:30;;;;;;;0.30;0.20;;;;;;;6.36;100.00;101264.09;5039693;28;20447;-52
2021/10/24 10:21:57;;;;;;;0.30;0.20;;;;;;;6.40;100.00;101259.69;5036031;28;20505;-50
2021/10/24 10:24:36;;;;;;;0.30;0.20;;;;;;;6.53;100.00;101258.88;5030015;28;20716;-49
2021/10/24 10:27:23;;;;;;;0.30;0.20;;;;;;;6.67;100.00;101256.28;5044556;28;20501;-49
2021/10/24 10:29:51;;;;;;;0.40;0.30;;;;;;;6.95;100.00;101246.66;5036789;28;20500;-49
2021/10/24 10:32:19;;;;;;;1.43;1.00;;;;;;;6.80;100.00;101247.50;5044557;28;20928;-49
2021/10/24 10:34:58;;;;;;;0.60;0.60;;;;;;;6.67;100.00;101253.63;5041892;28;20450;-50
2021/10/24 10:37:44;;;;;;;0.30;0.20;;;;;;;6.78;100.00;101252.78;5042957;28;20443;-51
2021/10/24 10:40:30;;;;;;;0.30;0.20;;;;;;;7.16;100.00;101245.81;5031381;28;20502;-50
2021/10/24 10:43:00;;;;;;;0.30;0.20;;;;;;;6.87;100.00;101248.41;5039052;28;20448;-49
2021/10/24 10:45:37;;;;;;;0.30;0.20;;;;;;;7.20;100.00;101245.81;5033408;28;20529;-49
2021/10/24 10:48:09;;;;;;;0.30;0.20;;;;;;;7.09;100.00;101231.69;5034161;28;20503;-49
2021/10/24 10:50:41;;;;;;;2.43;2.33;;;;;;;7.25;100.00;101232.56;5036053;28;20514;-50
2021/10/24 10:53:10;;;;;;;0.30;0.20;;;;;;;7.60;100.00;101229.94;5029593;28;20456;-50
2021/10/24 10:56:01;;;;;;;0.30;0.20;;;;;;;7.61;100.00;101231.69;5030062;28;20464;-49
2021/10/24 10:58:53;;;;;;;0.30;0.20;;;;;;;7.53;100.00;101221.09;5033793;28;20566;-49
2021/10/24 11:01:29;;;;;;;0.30;0.20;;;;;;;7.60;100.00;101217.56;5032430;28;20869;-49
2021/10/24 11:03:59;;;;;;;0.30;0.20;;;;;;;7.71;100.00;101217.56;5037071;28;20455;-49
2021/10/24 11:06:26;;;;;;;0.30;0.20;;;;;;;7.88;100.00;101214.88;5038681;28;20985;-49
2021/10/24 11:08:56;;;;;;;0.30;0.20;;;;;;;8.06;100.00;101209.50;5035984;28;20512;-49
2021/10/24 11:11:41;;;;;;;0.40;0.37;;;;;;;8.36;100.00;101208.56;5034115;28;20448;-50
2021/10/24 11:14:10;;;;;;;0.30;0.20;;;;;;;8.52;100.00;101207.59;5031865;28;20970;-49
2021/10/24 11:16:38;;;;;;;0.30;0.20;;;;;;;8.75;100.00;101193.31;5029927;28;20515;-50
2021/10/24 11:19:27;;;;;;;0.60;0.60;;;;;;;9.09;100.00;101191.31;5029586;28;20478;-50
2021/10/24 11:21:57;;;;;;;0.30;0.20;;;;;;;9.15;100.00;101186.81;5030608;28;20803;-50
2021/10/24 11:24:27;;;;;;;0.30;0.20;;;;;;;9.26;100.00;101183.19;5035269;28;20479;-50
2021/10/24 11:26:57;;;;;;;0.30;0.20;;;;;;;9.15;100.00;101176.19;5042459;28;20544;-49
2021/10/24 11:29:23;;;;;;;0.30;0.20;;;;;;;9.42;100.00;101174.19;5038405;28;20509;-50
2021/10/24 11:32:15;;;;;;;0.40;0.30;;;;;;;9.63;100.00;101165.16;5036988;28;20453;-50